createdAt,value
2023-05-10T00:01:45.699Z,7.00
2023-05-10T00:04:12.751Z,6.90
2023-05-10T00:06:40.068Z,6.17
2023-05-10T00:09:08.363Z,6.30
2023-05-10T00:11:35.245Z,6.20
2023-05-10T00:14:02.090Z,7.30
2023-05-10T00:16:29.082Z,7.67
2023-05-10T00:18:55.975Z,6.27
2023-05-10T00:21:22.950Z,6.80
2023-05-10T00:23:49.869Z,7.20
2023-05-10T00:26:16.743Z,6.73
2023-05-10T00:28:43.654Z,6.80
2023-05-10T00:31:10.721Z,6.43
2023-05-10T00:33:37.580Z,6.43
2023-05-10T00:36:04.908Z,7.50
2023-05-10T00:38:31.711Z,6.90
2023-05-10T00:40:58.643Z,5.97
2023-05-10T00:43:25.543Z,6.63
2023-05-10T00:45:52.953Z,6.93
2023-05-10T00:48:20.460Z,6.23
2023-05-10T00:50:47.483Z,6.73
2023-05-10T00:53:15.438Z,6.77
2023-05-10T00:55:43.025Z,7.57
2023-05-10T00:58:09.962Z,6.20
2023-05-10T01:00:37.732Z,7.07
2023-05-10T01:03:04.656Z,8.00
2023-05-10T01:05:31.537Z,7.30
2023-05-10T01:07:58.369Z,6.20
2023-05-10T01:10:25.287Z,6.97
2023-05-10T01:12:52.305Z,6.50
2023-05-10T01:15:21.430Z,6.83
2023-05-10T01:17:49.399Z,6.73
2023-05-10T01:20:17.363Z,5.43
2023-05-10T01:23:11.770Z,7.40
2023-05-10T01:26:16.077Z,7.00
2023-05-10T01:29:04.294Z,6.53
2023-05-10T01:32:15.266Z,6.77
2023-05-10T01:34:56.913Z,7.80
2023-05-10T01:37:38.204Z,7.07
2023-05-10T01:40:29.094Z,7.57
2023-05-10T01:43:04.301Z,7.57
2023-05-10T01:46:19.148Z,7.60
2023-05-10T01:48:53.124Z,6.83
2023-05-10T01:51:25.405Z,8.00
2023-05-10T01:54:01.317Z,7.83
2023-05-10T01:56:31.325Z,8.17
2023-05-10T01:59:01.272Z,7.00
2023-05-10T02:01:28.620Z,8.50
2023-05-10T02:03:58.069Z,8.07
2023-05-10T02:06:27.352Z,8.03
2023-05-10T02:08:54.876Z,6.97
2023-05-10T02:11:22.832Z,8.10
2023-05-10T02:13:52.832Z,9.10
2023-05-10T02:16:25.197Z,7.97
2023-05-10T02:18:54.277Z,8.17
2023-05-10T02:21:23.003Z,8.37
2023-05-10T02:23:53.175Z,8.53
2023-05-10T02:26:23.338Z,8.40
2023-05-10T02:28:51.782Z,8.27
2023-05-10T02:31:20.272Z,8.13
2023-05-10T02:33:48.966Z,8.00
2023-05-10T02:36:17.562Z,9.70
2023-05-10T02:38:45.903Z,8.47
2023-05-10T02:41:13.416Z,9.43
2023-05-10T02:43:41.900Z,10.37
2023-05-10T02:46:09.298Z,10.63
2023-05-10T02:48:36.253Z,9.40
2023-05-10T02:51:08.545Z,8.57
2023-05-10T02:53:39.827Z,7.97
2023-05-10T02:56:15.735Z,8.60
2023-05-10T02:58:42.849Z,9.90
2023-05-10T03:01:10.018Z,9.00
2023-05-10T03:03:36.926Z,9.17
2023-05-10T03:06:03.969Z,9.50
2023-05-10T03:08:30.982Z,9.77
2023-05-10T03:11:25.489Z,10.60
2023-05-10T03:14:52.995Z,9.27
2023-05-10T03:17:41.439Z,9.93
2023-05-10T03:20:12.287Z,9.77
2023-05-10T03:22:47.149Z,8.47
2023-05-10T03:25:17.784Z,9.93
2023-05-10T03:27:46.377Z,10.20
2023-05-10T03:30:14.605Z,9.70
2023-05-10T03:32:41.937Z,10.60
2023-05-10T03:35:13.281Z,10.63
2023-05-10T03:37:40.379Z,9.20
2023-05-10T03:40:08.372Z,10.03
2023-05-10T03:42:35.572Z,9.90
2023-05-10T03:45:02.398Z,10.03
2023-05-10T03:47:29.337Z,9.37
2023-05-10T03:49:56.263Z,9.10
2023-05-10T03:52:23.172Z,8.63
2023-05-10T03:54:50.024Z,9.37
2023-05-10T03:57:16.988Z,10.17
2023-05-10T03:59:43.916Z,9.37
2023-05-10T04:02:10.770Z,9.80
2023-05-10T04:04:37.878Z,9.90
2023-05-10T04:07:04.909Z,10.27
2023-05-10T04:09:31.760Z,9.57
2023-05-10T04:12:00.532Z,9.87
2023-05-10T04:14:27.484Z,9.80
2023-05-10T04:16:54.422Z,10.40
2023-05-10T04:19:21.539Z,10.00
2023-05-10T04:21:48.437Z,10.20
2023-05-10T04:24:15.316Z,9.43
2023-05-10T04:26:42.233Z,10.20
2023-05-10T04:29:09.263Z,10.33
2023-05-10T04:31:36.124Z,9.60
2023-05-10T04:34:03.000Z,10.87
2023-05-10T04:36:29.947Z,8.67
2023-05-10T04:38:56.848Z,10.40
2023-05-10T04:41:23.782Z,9.93
2023-05-10T04:43:51.083Z,10.27
2023-05-10T04:46:18.039Z,9.17
2023-05-10T04:48:45.012Z,9.50
2023-05-10T04:51:12.385Z,10.03
2023-05-10T04:53:39.476Z,9.60
2023-05-10T04:56:07.006Z,10.17
2023-05-10T04:58:34.036Z,10.47
2023-05-10T05:01:10.551Z,10.20
2023-05-10T05:03:38.469Z,9.20
2023-05-10T05:06:05.801Z,9.00
2023-05-10T05:08:32.713Z,10.83
2023-05-10T05:10:59.644Z,9.07
2023-05-10T05:13:26.581Z,10.27
2023-05-10T05:15:53.497Z,10.33
2023-05-10T05:18:20.372Z,9.40
2023-05-10T05:20:47.259Z,10.10
2023-05-10T05:23:14.044Z,10.43
2023-05-10T05:25:40.916Z,10.30
2023-05-10T05:28:07.832Z,9.87
2023-05-10T05:30:34.681Z,9.97
2023-05-10T05:33:01.656Z,10.50
2023-05-10T05:35:28.459Z,10.10
2023-05-10T05:37:55.349Z,9.93
2023-05-10T05:40:22.260Z,11.17
2023-05-10T05:42:49.045Z,10.97
2023-05-10T05:45:16.234Z,13.40
2023-05-10T05:47:43.362Z,11.60
2023-05-10T05:50:11.103Z,11.40
2023-05-10T05:52:37.976Z,11.90
2023-05-10T05:55:05.488Z,10.50
2023-05-10T05:57:32.465Z,12.37
2023-05-10T05:59:59.346Z,12.00
2023-05-10T06:02:26.288Z,12.93
2023-05-10T06:04:53.203Z,14.00
2023-05-10T06:07:19.998Z,13.30
2023-05-10T06:09:46.839Z,20.00
2023-05-10T06:12:14.064Z,11.70
2023-05-10T06:14:40.941Z,13.50
2023-05-10T06:17:07.832Z,21.83
2023-05-10T06:19:34.741Z,14.57
2023-05-10T06:22:01.615Z,12.40
2023-05-10T06:24:28.430Z,13.10
2023-05-10T06:26:55.287Z,13.67
2023-05-10T06:29:22.099Z,13.57
2023-05-10T06:31:48.959Z,13.73
2023-05-10T06:34:15.884Z,13.87
2023-05-10T06:36:42.938Z,13.97
2023-05-10T06:39:09.949Z,13.43
2023-05-10T06:41:36.768Z,16.07
2023-05-10T06:44:03.699Z,13.30
2023-05-10T06:46:30.755Z,13.57
2023-05-10T06:48:57.735Z,13.67
2023-05-10T06:51:24.672Z,18.47
2023-05-10T06:53:51.518Z,21.23
2023-05-10T06:56:18.454Z,17.70
2023-05-10T06:58:45.259Z,15.80
2023-05-10T07:01:12.239Z,15.83
2023-05-10T07:03:39.298Z,14.50
2023-05-10T07:06:06.506Z,14.40
2023-05-10T07:08:33.707Z,15.03
2023-05-10T07:11:08.127Z,12.80
2023-05-10T07:13:35.558Z,14.60
2023-05-10T07:16:02.715Z,13.40
2023-05-10T07:18:29.727Z,13.03
2023-05-10T07:20:57.982Z,12.87
2023-05-10T07:23:24.879Z,12.93
2023-05-10T07:25:52.653Z,13.90
2023-05-10T07:28:19.974Z,13.27
2023-05-10T07:30:47.367Z,14.00
2023-05-10T07:33:15.892Z,14.17
2023-05-10T07:35:43.659Z,14.67
2023-05-10T07:38:10.747Z,14.30
2023-05-10T07:40:38.014Z,13.10
2023-05-10T07:43:05.101Z,13.17
2023-05-10T07:45:31.955Z,11.37
2023-05-10T07:47:58.893Z,12.90
2023-05-10T07:50:25.758Z,12.87
2023-05-10T07:52:52.556Z,11.83
2023-05-10T07:55:20.303Z,13.17
2023-05-10T07:57:47.119Z,12.63
2023-05-10T08:00:18.619Z,11.80
2023-05-10T08:02:45.579Z,13.43
2023-05-10T08:05:12.736Z,12.93
2023-05-10T08:07:39.654Z,12.67
2023-05-10T08:10:07.995Z,11.87
2023-05-10T08:12:34.965Z,12.50
2023-05-10T08:15:01.924Z,11.33
2023-05-10T08:17:28.889Z,12.40
2023-05-10T08:19:55.820Z,13.20
2023-05-10T08:22:23.282Z,12.90
2023-05-10T08:24:50.140Z,12.10
2023-05-10T08:27:17.092Z,13.33
2023-05-10T08:29:50.071Z,12.50
2023-05-10T08:32:18.433Z,12.60
2023-05-10T08:34:45.442Z,11.90
2023-05-10T08:37:12.291Z,13.40
2023-05-10T08:39:39.224Z,12.70
2023-05-10T08:42:07.648Z,14.53
2023-05-10T08:44:37.269Z,14.70
2023-05-10T08:47:07.807Z,15.57
2023-05-10T08:49:34.863Z,16.40
2023-05-10T08:52:04.998Z,14.53
2023-05-10T08:54:34.049Z,13.33
2023-05-10T08:57:01.608Z,15.40
2023-05-10T08:59:29.112Z,16.50
2023-05-10T09:01:59.193Z,17.60
2023-05-10T09:04:26.971Z,15.70
2023-05-10T09:06:54.070Z,15.83
2023-05-10T09:09:22.730Z,15.70
2023-05-10T09:11:50.321Z,17.53
2023-05-10T09:14:17.832Z,14.97
2023-05-10T09:16:44.682Z,15.23
2023-05-10T09:19:11.904Z,13.17
2023-05-10T09:21:39.713Z,12.37
2023-05-10T09:24:08.979Z,12.90
2023-05-10T09:26:36.828Z,12.93
2023-05-10T09:29:04.543Z,12.77
2023-05-10T09:31:53.806Z,11.67
2023-05-10T09:34:30.066Z,12.63
2023-05-10T09:37:03.952Z,13.00
2023-05-10T09:39:38.653Z,13.53
2023-05-10T09:42:11.282Z,13.23
2023-05-10T09:44:38.388Z,12.23
2023-05-10T09:47:05.659Z,12.63
2023-05-10T09:49:32.613Z,12.30
2023-05-10T09:52:08.365Z,13.77
2023-05-10T09:54:36.060Z,15.10
2023-05-10T09:57:03.229Z,14.23
2023-05-10T09:59:31.054Z,14.37
2023-05-10T10:02:00.732Z,13.37
2023-05-10T10:04:28.658Z,14.60
2023-05-10T10:07:04.784Z,15.70
2023-05-10T10:09:33.625Z,16.05
2023-05-10T10:12:02.259Z,16.60
2023-05-10T10:14:30.574Z,15.93
2023-05-10T10:17:07.719Z,17.23
2023-05-10T10:19:36.917Z,16.27
2023-05-10T10:22:04.264Z,15.60
2023-05-10T10:24:31.431Z,14.93
2023-05-10T10:27:22.792Z,15.90
2023-05-10T10:30:30.772Z,14.77
2023-05-10T10:33:31.052Z,15.57
2023-05-10T10:36:02.235Z,15.50
2023-05-10T10:38:47.200Z,17.20
2023-05-10T10:41:36.371Z,15.20
2023-05-10T10:44:31.267Z,16.40
2023-05-10T10:47:13.284Z,11.93
2023-05-10T10:49:44.377Z,16.23
2023-05-10T10:52:30.239Z,15.20
2023-05-10T10:55:05.584Z,16.00
2023-05-10T10:57:43.604Z,17.40
2023-05-10T11:00:31.026Z,17.10
2023-05-10T11:03:19.486Z,15.70
2023-05-10T11:05:50.864Z,11.00
2023-05-10T11:08:30.769Z,12.37
2023-05-10T11:11:00.834Z,5.07
2023-05-10T11:13:42.528Z,3.93
2023-05-10T11:16:23.610Z,3.37
2023-05-10T11:19:06.091Z,3.30
2023-05-10T11:21:35.061Z,3.93
2023-05-10T11:24:02.979Z,3.67
2023-05-10T11:26:37.827Z,2.67
2023-05-10T11:29:05.000Z,3.30
2023-05-10T11:31:31.971Z,4.03
2023-05-10T11:34:00.975Z,3.00
2023-05-10T11:36:30.711Z,3.40
2023-05-10T11:38:58.372Z,3.00
2023-05-10T11:41:26.515Z,2.80
2023-05-10T11:43:58.036Z,3.13
2023-05-10T11:46:29.203Z,3.43
2023-05-10T11:49:01.150Z,4.60
2023-05-10T11:51:28.685Z,3.37
2023-05-10T11:53:57.753Z,3.13
2023-05-10T11:56:24.897Z,3.00
2023-05-10T11:58:58.886Z,3.17
2023-05-10T12:01:28.407Z,2.97
2023-05-10T12:03:58.395Z,3.20
2023-05-10T12:06:32.613Z,3.40
2023-05-10T12:09:00.221Z,3.87
2023-05-10T12:11:29.303Z,3.03
2023-05-10T12:13:57.266Z,3.20
2023-05-10T12:16:27.318Z,4.20
2023-05-10T12:18:58.275Z,2.00
2023-05-10T12:21:26.954Z,1.70
2023-05-10T12:23:56.200Z,1.57
2023-05-10T12:26:25.135Z,1.60
2023-05-10T12:28:52.047Z,1.40
2023-05-10T12:31:18.956Z,1.93
2023-05-10T12:33:47.115Z,2.20
2023-05-10T12:36:16.290Z,2.70
2023-05-10T12:38:46.528Z,2.70
2023-05-10T12:41:16.878Z,2.30
2023-05-10T12:43:44.683Z,2.53
2023-05-10T12:46:14.756Z,2.80
2023-05-10T12:48:43.871Z,2.47
2023-05-10T12:51:11.610Z,2.63
2023-05-10T12:53:41.430Z,2.80
2023-05-10T12:56:09.569Z,2.87
2023-05-10T12:58:36.451Z,1.90
2023-05-10T13:01:03.985Z,2.20
2023-05-10T13:03:31.193Z,1.90
2023-05-10T13:05:58.217Z,1.73
2023-05-10T13:08:25.168Z,1.90
2023-05-10T13:10:52.076Z,1.97
2023-05-10T13:13:18.963Z,2.70
2023-05-10T13:15:45.796Z,2.43
2023-05-10T13:18:12.807Z,2.07
2023-05-10T13:20:39.698Z,2.17
2023-05-10T13:23:06.673Z,2.30
2023-05-10T13:25:33.580Z,2.50
2023-05-10T13:28:00.339Z,2.77
2023-05-10T13:30:27.156Z,2.10
2023-05-10T13:32:54.010Z,1.83
2023-05-10T13:35:21.076Z,1.53
2023-05-10T13:37:47.977Z,1.73
2023-05-10T13:40:15.007Z,1.90
2023-05-10T13:42:42.478Z,2.00
2023-05-10T13:45:09.901Z,2.03
2023-05-10T13:47:36.794Z,2.07
2023-05-10T13:50:03.672Z,2.10
2023-05-10T13:52:30.583Z,1.90
2023-05-10T13:54:57.495Z,1.70
2023-05-10T13:57:24.365Z,2.13
2023-05-10T13:59:52.373Z,1.80
2023-05-10T14:02:19.246Z,2.03
2023-05-10T14:04:46.064Z,2.10
2023-05-10T14:07:12.955Z,1.77
2023-05-10T14:09:39.788Z,2.50
2023-05-10T14:12:06.967Z,2.30
2023-05-10T14:14:33.860Z,2.83
2023-05-10T14:17:00.703Z,3.20
2023-05-10T14:19:27.527Z,2.83
2023-05-10T14:21:54.456Z,3.10
2023-05-10T14:24:21.347Z,4.27
2023-05-10T14:26:48.262Z,3.80
2023-05-10T14:29:15.316Z,3.50
2023-05-10T14:31:42.291Z,3.37
2023-05-10T14:34:09.283Z,3.50
2023-05-10T14:36:36.145Z,3.80
2023-05-10T14:39:03.329Z,3.93
2023-05-10T14:41:30.149Z,4.00
2023-05-10T14:43:57.249Z,3.93
2023-05-10T14:46:24.203Z,4.47
2023-05-10T14:48:51.099Z,4.07
2023-05-10T14:51:17.996Z,3.10
2023-05-10T14:53:44.962Z,3.77
2023-05-10T14:56:11.894Z,3.23
2023-05-10T14:58:38.741Z,2.00
2023-05-10T15:01:05.907Z,1.50
2023-05-10T15:03:33.528Z,1.63
2023-05-10T15:06:00.977Z,1.90
2023-05-10T15:08:27.838Z,1.30
2023-05-10T15:10:54.698Z,1.33
2023-05-10T15:13:21.637Z,1.17
2023-05-10T15:15:48.558Z,1.27
2023-05-10T15:18:15.515Z,1.83
2023-05-10T15:20:42.359Z,2.20
2023-05-10T15:23:09.422Z,3.17
2023-05-10T15:25:36.302Z,2.90
2023-05-10T15:28:03.790Z,2.90
2023-05-10T15:30:30.696Z,1.97
2023-05-10T15:32:57.850Z,1.90
2023-05-10T15:35:24.786Z,2.27
2023-05-10T15:37:51.659Z,2.10
2023-05-10T15:40:18.513Z,2.23
2023-05-10T15:42:45.419Z,2.77
2023-05-10T15:45:12.749Z,3.10
2023-05-10T15:47:39.849Z,2.93
2023-05-10T15:50:08.172Z,2.77
2023-05-10T15:52:35.401Z,2.17
2023-05-10T15:55:02.320Z,2.53
2023-05-10T15:57:29.253Z,2.13
2023-05-10T15:59:56.197Z,2.10
2023-05-10T16:02:23.172Z,1.83
2023-05-10T16:04:50.401Z,1.67
2023-05-10T16:07:17.250Z,2.20
2023-05-10T16:09:44.122Z,1.77
2023-05-10T16:12:11.028Z,1.90
2023-05-10T16:14:37.907Z,1.47
2023-05-10T16:17:05.997Z,1.90
2023-05-10T16:19:33.052Z,1.80
2023-05-10T16:22:00.189Z,1.60
2023-05-10T16:24:27.200Z,1.73
2023-05-10T16:26:54.099Z,1.80
2023-05-10T16:29:21.020Z,1.83
2023-05-10T16:31:47.782Z,1.67
2023-05-10T16:34:14.695Z,1.80
2023-05-10T16:36:41.495Z,1.97
2023-05-10T16:39:08.612Z,2.10
2023-05-10T16:41:35.813Z,1.80
2023-05-10T16:44:02.925Z,1.70
2023-05-10T16:46:29.920Z,2.00
2023-05-10T16:48:56.789Z,2.00
2023-05-10T16:51:23.625Z,1.60
2023-05-10T16:53:50.597Z,1.80
2023-05-10T16:56:17.470Z,1.70
2023-05-10T16:58:44.680Z,1.70
2023-05-10T17:01:11.558Z,1.70
2023-05-10T17:03:38.552Z,1.80
2023-05-10T17:06:06.472Z,2.07
2023-05-10T17:08:33.610Z,2.10
2023-05-10T17:11:04.573Z,1.60
2023-05-10T17:13:31.973Z,2.20
2023-05-10T17:15:58.918Z,1.93
2023-05-10T17:18:25.975Z,1.83
2023-05-10T17:20:52.902Z,2.30
2023-05-10T17:23:19.793Z,2.00
2023-05-10T17:25:46.790Z,1.87
2023-05-10T17:28:13.727Z,2.10
2023-05-10T17:30:40.626Z,3.10
2023-05-10T17:33:07.469Z,8.30
2023-05-10T17:35:34.298Z,5.53
2023-05-10T17:38:01.244Z,2.07
2023-05-10T17:40:28.058Z,2.40
2023-05-10T17:42:54.945Z,2.50
2023-05-10T17:45:21.803Z,2.43
2023-05-10T17:47:48.692Z,2.33
2023-05-10T17:50:15.577Z,2.40
2023-05-10T17:52:42.373Z,2.37
2023-05-10T17:55:09.666Z,2.40
2023-05-10T17:57:36.497Z,3.17
2023-05-10T18:00:03.775Z,3.10
2023-05-10T18:02:30.626Z,3.30
2023-05-10T18:04:59.835Z,2.97
2023-05-10T18:07:33.224Z,2.80
2023-05-10T18:10:00.450Z,3.30
2023-05-10T18:12:27.316Z,2.57
2023-05-10T18:14:54.664Z,2.40
2023-05-10T18:17:23.318Z,8.83
2023-05-10T18:19:50.189Z,3.70
2023-05-10T18:22:20.181Z,3.07
2023-05-10T18:24:48.156Z,2.23
2023-05-10T18:27:18.530Z,3.67
2023-05-10T18:29:47.603Z,2.70
2023-05-10T18:32:14.481Z,2.80
2023-05-10T18:34:41.614Z,2.33
2023-05-10T18:37:09.067Z,2.50
2023-05-10T18:39:38.759Z,2.63
2023-05-10T18:42:06.230Z,2.73
2023-05-10T18:44:33.230Z,2.93
2023-05-10T18:47:00.364Z,2.67
2023-05-10T18:49:28.359Z,2.63
2023-05-10T18:51:55.272Z,3.40
2023-05-10T18:54:22.127Z,3.27
2023-05-10T18:56:49.284Z,3.03
2023-05-10T18:59:16.223Z,3.10
2023-05-10T19:01:43.201Z,6.50
2023-05-10T19:04:10.256Z,3.70
2023-05-10T19:06:37.217Z,3.13
2023-05-10T19:09:04.395Z,3.50
2023-05-10T19:11:31.191Z,3.50
2023-05-10T19:13:58.087Z,3.50
2023-05-10T19:16:25.051Z,3.50
2023-05-10T19:18:52.587Z,3.80
2023-05-10T19:21:20.016Z,3.50
2023-05-10T19:23:48.349Z,3.30
2023-05-10T19:26:15.238Z,3.43
2023-05-10T19:28:42.132Z,3.93
2023-05-10T19:31:09.924Z,3.93
2023-05-10T19:33:38.481Z,3.70
2023-05-10T19:36:05.933Z,3.93
2023-05-10T19:38:33.838Z,4.57
2023-05-10T19:41:01.289Z,4.17
2023-05-10T19:43:33.340Z,4.07
2023-05-10T19:46:04.579Z,3.83
2023-05-10T19:48:31.795Z,4.00
2023-05-10T19:51:05.201Z,4.03
2023-05-10T19:53:33.871Z,3.47
2023-05-10T19:56:07.284Z,3.63
2023-05-10T19:58:34.529Z,3.87
2023-05-10T20:01:02.119Z,3.90
2023-05-10T20:03:29.140Z,4.00
2023-05-10T20:05:56.051Z,4.37
2023-05-10T20:08:22.953Z,4.83
2023-05-10T20:10:49.822Z,6.20
2023-05-10T20:13:16.746Z,6.07
2023-05-10T20:15:44.452Z,6.97
2023-05-10T20:18:11.345Z,6.77
2023-05-10T20:20:39.128Z,6.07
2023-05-10T20:23:05.977Z,6.97
2023-05-10T20:25:33.006Z,7.50
2023-05-10T20:27:59.830Z,7.40
2023-05-10T20:30:26.786Z,6.90
2023-05-10T20:32:53.659Z,7.63
2023-05-10T20:35:20.628Z,6.83
2023-05-10T20:37:47.463Z,6.30
2023-05-10T20:40:14.446Z,6.20
2023-05-10T20:42:41.237Z,6.90
2023-05-10T20:45:09.422Z,6.37
2023-05-10T20:47:36.531Z,6.63
2023-05-10T20:50:04.123Z,7.20
2023-05-10T20:52:31.036Z,6.20
2023-05-10T20:54:57.889Z,6.43
2023-05-10T20:57:24.724Z,6.50
2023-05-10T20:59:51.581Z,6.37
2023-05-10T21:02:18.527Z,6.20
2023-05-10T21:04:45.632Z,6.27
2023-05-10T21:07:12.520Z,6.00
2023-05-10T21:09:39.291Z,6.27
2023-05-10T21:12:06.565Z,6.77
2023-05-10T21:14:33.379Z,6.40
2023-05-10T21:17:00.303Z,7.20
2023-05-10T21:19:27.316Z,6.63
2023-05-10T21:21:54.201Z,7.30
2023-05-10T21:24:21.053Z,6.87
2023-05-10T21:26:47.959Z,5.97
2023-05-10T21:29:14.788Z,5.67
2023-05-10T21:31:41.680Z,6.00
2023-05-10T21:34:08.661Z,5.73
2023-05-10T21:36:35.502Z,5.10
2023-05-10T21:39:02.338Z,6.07
2023-05-10T21:41:29.202Z,5.33
2023-05-10T21:43:56.132Z,5.10
2023-05-10T21:46:23.037Z,6.00
2023-05-10T21:48:49.925Z,5.50
2023-05-10T21:51:16.714Z,6.23
2023-05-10T21:53:43.605Z,6.30
2023-05-10T21:56:10.422Z,5.80
2023-05-10T21:58:37.283Z,6.20
2023-05-10T22:01:04.199Z,6.17
2023-05-10T22:03:31.373Z,6.10
2023-05-10T22:05:58.217Z,6.60
2023-05-10T22:08:25.238Z,6.20
2023-05-10T22:10:52.076Z,5.73
2023-05-10T22:13:18.945Z,4.57
2023-05-10T22:15:45.820Z,5.20
2023-05-10T22:18:12.677Z,6.00
2023-05-10T22:20:39.594Z,4.87
2023-05-10T22:23:06.484Z,5.03
2023-05-10T22:25:33.384Z,6.80
2023-05-10T22:28:00.302Z,4.10
2023-05-10T22:30:27.195Z,4.60
2023-05-10T22:32:54.205Z,3.07
2023-05-10T22:35:21.147Z,2.80
2023-05-10T22:37:47.963Z,3.23
2023-05-10T22:40:14.999Z,2.50
2023-05-10T22:42:42.233Z,3.33
2023-05-10T22:45:10.307Z,3.03
2023-05-10T22:47:37.289Z,2.70
2023-05-10T22:50:04.514Z,2.67
2023-05-10T22:52:31.333Z,2.20
2023-05-10T22:54:58.129Z,2.00
2023-05-10T22:57:25.027Z,1.77
2023-05-10T22:59:52.807Z,1.93
2023-05-10T23:02:19.689Z,1.87
2023-05-10T23:04:47.076Z,2.00
2023-05-10T23:07:13.996Z,1.43
2023-05-10T23:09:40.925Z,1.40
2023-05-10T23:12:07.870Z,1.33
2023-05-10T23:14:34.786Z,1.30
2023-05-10T23:17:01.637Z,1.47
2023-05-10T23:19:28.540Z,1.30
2023-05-10T23:21:55.376Z,1.20
2023-05-10T23:24:22.250Z,1.00
2023-05-10T23:26:49.033Z,1.33
2023-05-10T23:29:15.895Z,1.13
2023-05-10T23:31:42.849Z,1.30
2023-05-10T23:34:09.871Z,1.23
2023-05-10T23:36:36.806Z,1.20
2023-05-10T23:39:03.987Z,1.10
2023-05-10T23:41:30.951Z,1.50
2023-05-10T23:43:57.786Z,1.10
2023-05-10T23:46:24.905Z,1.30
2023-05-10T23:48:51.876Z,1.50
2023-05-10T23:51:18.767Z,1.80
2023-05-10T23:53:45.958Z,1.47
2023-05-10T23:56:12.772Z,1.60
2023-05-10T23:58:39.705Z,1.30
